Terminal Aerodrome Forecast
Issued by NWS Louisville, KY

Home | Current Version | Previous Version | Text Only | Print | Product List | Glossary On
Versions: 1 2 3 4 5 6 7 8 9 10 11 12 13 14 15 16
000
FTUS43 KLMK 280500
TAFLEX
TAF
KLEX 280515Z 2806/2906 28008KT P6SM OVC035
     FM280800 21003KT P6SM SCT150
     FM281300 19005KT P6SM BKN150
     FM281900 19008KT P6SM SCT070=

USA.gov is the U.S. government's official web portal to all federal, state and local government web resources and services.